Terminal Aerodrome Forecast
Issued by NWS

Home | Current Version | Previous Version | Text Only | Print | Product List | Glossary On
Versions: 1 2 3 4 5 6 7 8 9 10 11 12 13
000
FTUS44 KTSA 301700
TAFFYV
TAF
KFYV 301720Z 3018/3118 VRB05KT P6SM BKN150 BKN250
     FM310700 15002KT P6SM OVC120=

USA.gov is the U.S. government's official web portal to all federal, state and local government web resources and services.